Time;durP1;ratioP1;P1;durP2;ratioP2;P2;SDS_P1;SDS_P2;PMS_P1;PMS_P2;Temp;Humidity;BMP_temperature;BMP_pressure;BME280_temperature;BME280_humidity;BME280_pressure;Samples;Min_cycle;Max_cycle;Signal;HPM_P1;HPM_P2
2022/11/21 00:01:35;;;;;;;1.50;1.40;;;3.90;99.90;;;;;;5047506;28;20179;-60
2022/11/21 00:04:00;;;;;;;1.33;1.23;;;3.90;99.90;;;;;;5049441;28;20179;-58
2022/11/21 00:06:26;;;;;;;1.40;1.20;;;3.90;99.90;;;;;;5050228;28;20182;-57
2022/11/21 00:08:52;;;;;;;1.67;1.27;;;4.00;99.90;;;;;;5050765;28;20195;-58
2022/11/21 00:11:17;;;;;;;1.70;1.20;;;4.00;99.90;;;;;;5049001;28;20210;-59
2022/11/21 00:13:44;;;;;;;1.00;1.00;;;4.00;99.90;;;;;;5048122;28;20180;-58
2022/11/21 00:16:12;;;;;;;1.10;1.00;;;4.00;99.90;;;;;;5046665;28;20191;-57
2022/11/21 00:18:37;;;;;;;1.60;1.13;;;4.00;99.90;;;;;;5048794;28;20476;-58
2022/11/21 00:21:09;;;;;;;1.00;1.00;;;4.00;99.90;;;;;;5045146;28;20805;-60
2022/11/21 00:23:35;;;;;;;4.73;1.67;;;4.00;99.90;;;;;;5048854;28;20733;-58
2022/11/21 00:26:08;;;;;;;1.60;1.40;;;4.00;99.90;;;;;;5050414;28;20463;-58
2022/11/21 00:28:34;;;;;;;1.67;1.17;;;4.00;99.90;;;;;;5048307;28;20463;-58
2022/11/21 00:30:59;;;;;;;3.80;1.10;;;4.00;99.90;;;;;;5048751;28;20899;-59
2022/11/21 00:33:25;;;;;;;3.23;1.10;;;4.00;99.90;;;;;;5046133;28;20179;-60
2022/11/21 00:35:50;;;;;;;2.90;1.40;;;4.00;99.90;;;;;;5042090;28;20577;-59
2022/11/21 00:38:16;;;;;;;2.57;1.10;;;4.00;99.90;;;;;;5035501;28;20198;-57
2022/11/21 00:40:43;;;;;;;1.10;1.10;;;4.00;99.90;;;;;;5047739;28;20715;-57
2022/11/21 00:43:08;;;;;;;4.63;1.20;;;4.00;99.90;;;;;;5050664;28;20175;-57
2022/11/21 00:45:34;;;;;;;1.63;1.17;;;4.00;99.90;;;;;;5049828;28;20433;-60
2022/11/21 00:48:00;;;;;;;1.27;1.17;;;4.00;99.90;;;;;;5046957;28;20625;-58
2022/11/21 00:50:25;;;;;;;2.20;1.00;;;3.90;99.90;;;;;;5050742;28;20266;-59
2022/11/21 00:52:57;;;;;;;1.57;1.03;;;3.90;99.90;;;;;;5062657;28;20235;-61
2022/11/21 00:55:24;;;;;;;1.03;1.00;;;3.90;99.90;;;;;;5054698;28;20550;-61
2022/11/21 00:57:50;;;;;;;1.83;1.30;;;3.90;99.90;;;;;;5043301;28;20493;-59
2022/11/21 01:00:17;;;;;;;1.00;1.00;;;3.90;99.90;;;;;;5050705;28;20504;-61
2022/11/21 01:02:42;;;;;;;1.00;0.90;;;3.90;99.90;;;;;;5055235;28;20989;-58
2022/11/21 01:05:08;;;;;;;1.93;1.20;;;3.90;99.90;;;;;;5032917;28;20433;-58
2022/11/21 01:07:34;;;;;;;2.53;1.00;;;3.90;99.90;;;;;;5048051;28;20170;-60
2022/11/21 01:10:00;;;;;;;0.90;0.90;;;3.90;99.90;;;;;;5040324;28;20433;-60
2022/11/21 01:12:25;;;;;;;1.30;1.20;;;3.90;99.90;;;;;;5046549;28;20834;-59
2022/11/21 01:14:51;;;;;;;0.90;0.90;;;3.90;99.90;;;;;;5044787;28;20190;-59
2022/11/21 01:17:17;;;;;;;2.23;1.20;;;3.90;99.90;;;;;;5048070;28;20180;-58
2022/11/21 01:19:43;;;;;;;1.10;1.10;;;3.90;99.90;;;;;;5044502;28;20214;-58
2022/11/21 01:22:08;;;;;;;1.13;1.03;;;3.90;99.90;;;;;;5046029;28;20790;-58
2022/11/21 01:24:34;;;;;;;0.90;0.90;;;4.00;99.90;;;;;;5049666;28;20183;-59
2022/11/21 01:26:59;;;;;;;4.47;1.20;;;3.90;99.90;;;;;;5050353;28;20178;-57
2022/11/21 01:29:26;;;;;;;1.90;1.30;;;3.90;99.90;;;;;;5044074;28;20203;-57
2022/11/21 01:31:52;;;;;;;2.30;1.33;;;3.90;99.90;;;;;;5048723;28;20183;-57
2022/11/21 01:34:18;;;;;;;2.37;1.00;;;3.90;99.90;;;;;;5048609;28;20423;-60
2022/11/21 01:36:43;;;;;;;0.90;0.90;;;3.90;99.90;;;;;;5032226;28;20201;-58
2022/11/21 01:39:10;;;;;;;1.83;1.17;;;3.90;99.90;;;;;;5049290;28;20575;-59
2022/11/21 01:41:39;;;;;;;3.10;1.10;;;3.90;99.90;;;;;;5050009;28;20551;-58
2022/11/21 01:44:22;;;;;;;1.33;1.10;;;3.90;99.90;;;;;;5049599;28;20433;-58
2022/11/21 01:46:49;;;;;;;3.40;1.10;;;3.90;99.90;;;;;;5051885;28;20532;-59
2022/11/21 01:49:20;;;;;;;0.97;0.90;;;3.90;99.90;;;;;;5051601;28;20540;-60
2022/11/21 01:51:49;;;;;;;1.10;1.10;;;3.90;99.90;;;;;;5025727;28;20417;-59
2022/11/21 01:54:22;;;;;;;2.50;1.23;;;4.00;99.90;;;;;;5045206;28;20820;-62
2022/11/21 01:56:54;;;;;;;1.07;1.00;;;3.90;99.90;;;;;;5040103;28;20441;-59
2022/11/21 01:59:35;;;;;;;1.63;1.10;;;3.90;99.90;;;;;;5051027;28;20472;-61
2022/11/21 02:02:04;;;;;;;2.80;1.30;;;4.00;99.90;;;;;;5048519;28;20418;-59
2022/11/21 02:04:32;;;;;;;2.13;1.40;;;4.00;99.90;;;;;;5048406;28;20432;-59
2022/11/21 02:07:00;;;;;;;1.70;1.60;;;4.00;99.90;;;;;;5050221;28;20429;-59
2022/11/21 02:09:26;;;;;;;3.13;1.60;;;4.00;99.90;;;;;;5046762;28;20485;-59
2022/11/21 02:11:57;;;;;;;2.10;1.60;;;4.00;99.90;;;;;;5048499;28;20409;-60
2022/11/21 02:14:23;;;;;;;2.43;1.70;;;4.00;99.90;;;;;;5033996;28;20446;-59
2022/11/21 02:16:49;;;;;;;2.90;1.43;;;4.00;99.90;;;;;;5051032;28;20421;-59
2022/11/21 02:19:36;;;;;;;5.37;2.03;;;4.00;99.90;;;;;;5037572;28;20477;-58
2022/11/21 02:22:26;;;;;;;6.47;2.07;;;4.00;99.90;;;;;;5042802;28;20448;-58
2022/11/21 02:25:10;;;;;;;7.60;1.70;;;3.90;99.90;;;;;;5040505;28;20509;-57
2022/11/21 02:27:36;;;;;;;6.50;1.60;;;3.90;99.90;;;;;;5042929;28;20434;-59
2022/11/21 02:30:04;;;;;;;4.17;1.60;;;3.90;99.90;;;;;;5028391;28;20876;-58
2022/11/21 02:32:38;;;;;;;3.83;1.60;;;3.90;99.90;;;;;;5048243;28;20479;-58
2022/11/21 02:35:05;;;;;;;4.73;1.70;;;3.90;99.90;;;;;;5048004;28;20436;-59
2022/11/21 02:37:32;;;;;;;2.67;1.40;;;3.90;99.90;;;;;;5052594;28;20435;-58
2022/11/21 02:40:01;;;;;;;1.33;1.23;;;3.90;99.90;;;;;;5042049;28;20449;-57
2022/11/21 02:42:56;;;;;;;2.80;1.30;;;3.90;99.90;;;;;;5052196;28;20412;-58
2022/11/21 02:45:36;;;;;;;1.83;1.47;;;3.90;99.90;;;;;;5045716;28;20425;-58
2022/11/21 02:48:02;;;;;;;1.53;1.10;;;3.90;99.90;;;;;;5035844;28;20460;-57
2022/11/21 02:50:47;;;;;;;2.40;1.17;;;3.90;99.90;;;;;;5053145;28;20429;-58
2022/11/21 02:53:15;;;;;;;3.20;1.23;;;3.90;99.90;;;;;;5052478;28;20331;-58
2022/11/21 02:55:41;;;;;;;1.70;1.20;;;3.90;99.90;;;;;;5036994;28;20425;-58
2022/11/21 02:58:07;;;;;;;1.10;1.00;;;3.90;99.90;;;;;;5051367;28;20454;-58
2022/11/21 03:00:34;;;;;;;2.20;1.67;;;3.90;99.90;;;;;;5051554;28;20457;-58
2022/11/21 03:03:00;;;;;;;2.00;1.37;;;3.90;99.90;;;;;;5051351;28;20179;-57
2022/11/21 03:05:26;;;;;;;1.00;1.00;;;3.90;99.90;;;;;;5052508;28;20433;-57
2022/11/21 03:07:52;;;;;;;1.13;1.00;;;3.90;99.90;;;;;;5047903;28;20252;-58
2022/11/21 03:10:17;;;;;;;1.33;0.90;;;3.90;99.90;;;;;;5042064;28;20433;-58
2022/11/21 03:12:43;;;;;;;1.30;1.20;;;3.90;99.90;;;;;;5048510;28;20701;-59
2022/11/21 03:15:11;;;;;;;2.17;1.10;;;3.90;99.90;;;;;;5052812;28;20673;-58
2022/11/21 03:17:37;;;;;;;0.93;0.93;;;3.80;99.90;;;;;;5051853;28;20215;-57
2022/11/21 03:20:04;;;;;;;3.07;1.20;;;3.80;99.90;;;;;;5048861;28;21005;-59
2022/11/21 03:22:30;;;;;;;1.10;0.90;;;3.70;99.90;;;;;;5050833;28;20876;-58
2022/11/21 03:24:55;;;;;;;0.97;0.90;;;3.70;99.90;;;;;;5052342;28;20424;-58
2022/11/21 03:27:21;;;;;;;1.33;1.00;;;3.70;99.90;;;;;;5051509;28;20561;-60
2022/11/21 03:29:47;;;;;;;1.40;1.13;;;3.70;99.90;;;;;;5044392;28;20189;-58
2022/11/21 03:32:12;;;;;;;1.23;1.13;;;3.70;99.90;;;;;;5052849;28;20189;-59
2022/11/21 03:34:38;;;;;;;2.63;1.20;;;3.70;99.90;;;;;;5050528;28;20179;-59
2022/11/21 03:37:04;;;;;;;1.13;1.03;;;3.70;99.90;;;;;;5050972;28;20214;-62
2022/11/21 03:39:30;;;;;;;1.53;1.30;;;3.70;99.90;;;;;;5049761;28;20207;-60
2022/11/21 03:41:56;;;;;;;1.23;1.10;;;3.70;99.90;;;;;;5051183;28;20186;-61
2022/11/21 03:44:21;;;;;;;0.80;0.80;;;3.70;99.90;;;;;;5042412;28;20430;-59
2022/11/21 03:46:47;;;;;;;1.20;1.10;;;3.70;99.90;;;;;;5043023;28;20178;-59
2022/11/21 03:49:15;;;;;;;1.63;0.90;;;3.60;99.90;;;;;;5050255;28;20314;-59
2022/11/21 03:51:42;;;;;;;2.23;0.90;;;3.60;99.90;;;;;;5052881;28;20221;-58
2022/11/21 03:54:08;;;;;;;0.80;0.80;;;3.60;99.90;;;;;;5047262;28;20438;-57
2022/11/21 03:56:34;;;;;;;0.90;0.90;;;3.60;99.90;;;;;;5048093;28;20437;-58
2022/11/21 03:59:00;;;;;;;1.00;0.90;;;3.60;99.90;;;;;;5050100;28;20481;-57
2022/11/21 04:01:26;;;;;;;1.40;1.00;;;3.60;99.90;;;;;;5046142;28;20435;-58
2022/11/21 04:03:51;;;;;;;0.90;0.90;;;3.60;99.90;;;;;;5050580;28;20233;-58
2022/11/21 04:06:19;;;;;;;2.10;1.20;;;3.60;99.90;;;;;;5048043;28;20179;-62
2022/11/21 04:08:45;;;;;;;1.53;1.00;;;3.50;99.90;;;;;;5049623;28;20212;-58
2022/11/21 04:11:11;;;;;;;0.90;0.90;;;3.50;99.90;;;;;;5047246;28;20479;-62
2022/11/21 04:13:37;;;;;;;2.40;1.00;;;3.50;99.90;;;;;;5047483;28;20929;-58
2022/11/21 04:16:03;;;;;;;1.27;1.07;;;3.50;99.90;;;;;;5049197;28;20179;-58
2022/11/21 04:18:29;;;;;;;0.87;0.87;;;3.50;99.90;;;;;;5050431;28;20465;-59
2022/11/21 04:21:03;;;;;;;1.07;0.90;;;3.40;99.90;;;;;;5050261;28;20210;-59
2022/11/21 04:23:28;;;;;;;1.30;1.00;;;3.40;99.90;;;;;;5044909;28;20274;-59
2022/11/21 04:25:54;;;;;;;0.73;0.73;;;3.30;99.90;;;;;;5024915;28;20999;-59
2022/11/21 04:28:20;;;;;;;2.57;1.30;;;3.30;99.90;;;;;;5043152;28;20201;-60
2022/11/21 04:30:46;;;;;;;0.80;0.80;;;3.30;99.90;;;;;;5052875;28;20187;-60
2022/11/21 04:33:14;;;;;;;1.00;1.00;;;3.30;99.90;;;;;;5042943;28;20441;-60
2022/11/21 04:35:41;;;;;;;1.10;0.97;;;3.30;99.90;;;;;;5039498;28;20189;-59
2022/11/21 04:38:06;;;;;;;1.10;1.00;;;3.30;99.90;;;;;;5050980;28;20479;-59
2022/11/21 04:40:33;;;;;;;0.80;0.80;;;3.30;99.90;;;;;;5048397;28;21072;-59
2022/11/21 04:42:58;;;;;;;1.70;1.40;;;3.30;99.90;;;;;;5048866;28;20186;-59
2022/11/21 04:45:24;;;;;;;1.20;0.90;;;3.40;99.90;;;;;;5045238;28;20538;-59
2022/11/21 04:47:50;;;;;;;0.93;0.93;;;3.40;99.90;;;;;;5038195;28;20237;-59
2022/11/21 04:50:17;;;;;;;0.70;0.70;;;3.40;99.90;;;;;;5050669;28;20788;-59
2022/11/21 04:52:51;;;;;;;2.63;0.90;;;3.40;99.90;;;;;;5024121;28;20241;-59
2022/11/21 04:55:17;;;;;;;0.90;0.90;;;3.40;99.90;;;;;;5036816;28;20948;-60
2022/11/21 04:57:43;;;;;;;2.73;1.00;;;3.40;99.90;;;;;;5045999;28;20457;-56
2022/11/21 05:00:09;;;;;;;1.97;0.90;;;3.50;99.90;;;;;;5047317;28;20458;-60
2022/11/21 05:02:35;;;;;;;2.50;2.07;;;3.50;99.90;;;;;;5040613;28;20183;-59
2022/11/21 05:05:00;;;;;;;3.80;1.10;;;3.50;99.90;;;;;;5042869;28;20521;-60
2022/11/21 05:07:26;;;;;;;1.17;1.10;;;3.50;99.90;;;;;;5031700;28;20550;-59
2022/11/21 05:09:52;;;;;;;1.20;1.10;;;3.50;99.90;;;;;;5042343;28;20218;-60
2022/11/21 05:15:01;;;;;;;1.50;1.40;;;3.50;99.90;;;;;;5040414;28;20204;-57
2022/11/21 05:17:28;;;;;;;1.93;1.83;;;3.50;99.90;;;;;;5042156;28;20890;-59
2022/11/21 05:19:54;;;;;;;1.23;1.17;;;3.50;99.90;;;;;;5038161;28;20322;-59
2022/11/21 05:22:19;;;;;;;1.10;1.10;;;3.50;99.90;;;;;;5041992;28;20533;-57
2022/11/21 05:24:45;;;;;;;1.40;1.20;;;3.50;99.90;;;;;;5036384;28;20607;-59
2022/11/21 05:27:11;;;;;;;0.97;0.97;;;3.50;99.90;;;;;;5045770;28;20182;-59
2022/11/21 05:29:36;;;;;;;1.00;1.00;;;3.40;99.90;;;;;;5041677;28;20199;-58
2022/11/21 05:32:02;;;;;;;1.20;1.00;;;3.40;99.90;;;;;;5042063;28;20175;-59
2022/11/21 05:34:27;;;;;;;12.63;6.33;;;3.40;99.90;;;;;;5040120;28;20733;-59
2022/11/21 05:36:56;;;;;;;4.10;1.20;;;3.40;99.90;;;;;;5046853;28;20277;-59
2022/11/21 05:39:22;;;;;;;5.90;2.50;;;3.30;99.90;;;;;;5043331;28;20226;-59
2022/11/21 05:41:48;;;;;;;1.60;1.50;;;3.30;99.90;;;;;;5030738;28;20437;-60
2022/11/21 05:44:13;;;;;;;2.83;1.10;;;3.30;99.90;;;;;;5042664;28;20439;-59
2022/11/21 05:46:39;;;;;;;1.27;1.17;;;3.30;99.90;;;;;;5044101;28;20240;-60
2022/11/21 05:49:05;;;;;;;2.57;1.20;;;3.30;99.90;;;;;;5043220;28;20225;-59
2022/11/21 05:51:30;;;;;;;1.20;0.87;;;3.30;99.90;;;;;;5044419;28;20184;-60
2022/11/21 05:53:56;;;;;;;0.97;0.87;;;3.30;99.90;;;;;;5050500;28;20174;-60
2022/11/21 05:56:21;;;;;;;1.10;1.00;;;3.30;99.90;;;;;;5047734;28;20179;-60
2022/11/21 05:58:47;;;;;;;2.23;1.13;;;3.30;99.90;;;;;;5026883;28;20213;-59
2022/11/21 06:03:25;;;;;;;1.30;1.20;;;3.30;99.90;;;;;;5037024;28;20259;-61
2022/11/21 06:04:00;;;;;;;3.00;1.70;;;3.30;99.90;;;;;;5046613;28;20175;-61
2022/11/21 06:06:26;;;;;;;1.67;1.00;;;3.30;99.90;;;;;;5025719;28;20422;-60
2022/11/21 06:08:52;;;;;;;2.60;1.10;;;3.30;99.90;;;;;;5042603;28;20245;-61
2022/11/21 06:11:17;;;;;;;1.37;1.27;;;3.40;99.90;;;;;;5044432;28;20669;-61
2022/11/21 06:13:43;;;;;;;8.23;1.60;;;3.40;99.90;;;;;;5045156;28;20179;-60
2022/11/21 06:16:11;;;;;;;2.53;1.67;;;3.40;99.90;;;;;;5041312;28;20175;-60
2022/11/21 06:18:39;;;;;;;2.10;1.40;;;3.40;99.90;;;;;;5045541;28;20465;-60
2022/11/21 06:21:25;;;;;;;1.20;1.10;;;3.40;99.90;;;;;;5033836;28;20501;-60
2022/11/21 06:23:53;;;;;;;2.73;1.37;;;3.40;99.90;;;;;;5048109;28;20496;-60
2022/11/21 06:26:22;;;;;;;2.23;1.10;;;3.40;99.90;;;;;;5043845;28;20426;-61
2022/11/21 06:28:48;;;;;;;4.93;1.50;;;3.40;99.90;;;;;;5046065;28;20449;-60
2022/11/21 06:31:16;;;;;;;5.70;1.53;;;3.40;99.90;;;;;;5044245;28;20410;-60
2022/11/21 06:33:43;;;;;;;3.37;1.60;;;3.40;99.90;;;;;;5045744;28;20186;-60
2022/11/21 06:36:11;;;;;;;3.77;1.30;;;3.40;99.90;;;;;;5029261;28;20417;-60
2022/11/21 06:38:36;;;;;;;3.57;2.30;;;3.40;99.90;;;;;;5047121;28;20531;-60
2022/11/21 06:41:05;;;;;;;3.00;2.10;;;3.40;99.90;;;;;;5043580;28;20560;-61
2022/11/21 06:43:31;;;;;;;1.27;1.20;;;3.50;99.90;;;;;;5038718;28;20194;-61
2022/11/21 06:45:57;;;;;;;7.00;2.10;;;3.50;99.90;;;;;;5046322;28;21002;-61
2022/11/21 06:48:23;;;;;;;4.00;2.60;;;3.50;99.90;;;;;;5027970;28;20671;-61
2022/11/21 06:50:49;;;;;;;2.33;2.10;;;3.50;99.90;;;;;;5023893;28;20446;-61
2022/11/21 06:53:15;;;;;;;2.97;2.67;;;3.50;99.90;;;;;;5048296;28;20436;-61
2022/11/21 06:55:41;;;;;;;2.27;1.93;;;3.50;99.90;;;;;;5048462;28;20503;-60
2022/11/21 06:58:06;;;;;;;3.50;1.90;;;3.50;99.90;;;;;;5027461;28;20221;-60
2022/11/21 07:00:32;;;;;;;4.43;1.83;;;3.50;99.90;;;;;;5047039;28;20682;-60
2022/11/21 07:03:01;;;;;;;5.60;2.00;;;3.50;99.90;;;;;;5044409;28;20174;-60
2022/11/21 07:05:27;;;;;;;2.80;1.70;;;3.50;99.90;;;;;;5046262;28;20229;-60
2022/11/21 07:07:59;;;;;;;3.37;1.93;;;3.40;99.90;;;;;;5046439;28;20449;-60
2022/11/21 07:10:25;;;;;;;1.97;1.53;;;3.40;99.90;;;;;;5045044;28;20443;-60
2022/11/21 07:15:35;;;;;;;2.87;2.30;;;3.40;99.90;;;;;;5044093;28;20429;-60
2022/11/21 07:18:01;;;;;;;3.57;2.00;;;3.40;99.90;;;;;;5048103;28;20468;-60
2022/11/21 07:20:26;;;;;;;6.37;2.40;;;3.40;99.90;;;;;;5045742;28;20199;-60
2022/11/21 07:22:55;;;;;;;2.80;2.30;;;3.40;99.90;;;;;;5041972;28;20202;-59
2022/11/21 07:25:21;;;;;;;2.53;2.03;;;3.40;99.90;;;;;;5046996;28;20205;-59
2022/11/21 07:27:47;;;;;;;4.83;2.00;;;3.30;99.90;;;;;;5045257;28;20449;-60
2022/11/21 07:30:13;;;;;;;6.33;2.27;;;3.30;99.90;;;;;;5040245;28;20471;-59
2022/11/21 07:32:39;;;;;;;3.43;1.90;;;3.30;99.90;;;;;;5050061;28;20770;-59
2022/11/21 07:35:05;;;;;;;3.03;2.30;;;3.30;99.90;;;;;;5044199;28;20438;-59
2022/11/21 07:37:31;;;;;;;4.93;1.93;;;3.30;99.90;;;;;;5034372;28;20230;-60
2022/11/21 07:39:56;;;;;;;4.90;2.97;;;3.30;99.90;;;;;;5048692;28;20457;-60
2022/11/21 07:42:22;;;;;;;5.93;3.50;;;3.30;99.90;;;;;;5046451;28;20172;-60
2022/11/21 07:44:48;;;;;;;7.00;4.30;;;3.30;99.90;;;;;;5045608;28;20171;-60
2022/11/21 07:47:13;;;;;;;12.97;4.97;;;3.30;99.90;;;;;;5045204;28;20551;-60
2022/11/21 07:49:39;;;;;;;11.60;4.20;;;3.30;99.90;;;;;;5058508;28;20194;-59
2022/11/21 07:52:04;;;;;;;6.13;3.40;;;3.30;99.90;;;;;;5051071;28;20179;-60
2022/11/21 07:54:30;;;;;;;7.40;2.90;;;3.30;99.90;;;;;;5049592;28;20265;-60
2022/11/21 07:56:56;;;;;;;6.73;3.87;;;3.30;99.90;;;;;;5052263;28;20186;-60
2022/11/21 07:59:21;;;;;;;9.80;5.17;;;3.30;99.90;;;;;;5053209;28;20678;-60
2022/11/21 08:01:47;;;;;;;16.03;5.20;;;3.30;99.90;;;;;;5048517;28;20182;-60
2022/11/21 08:04:12;;;;;;;10.87;6.13;;;3.30;99.90;;;;;;5038902;28;20175;-61
2022/11/21 08:06:38;;;;;;;8.23;4.10;;;3.30;99.90;;;;;;5038704;28;20176;-60
2022/11/21 08:09:03;;;;;;;15.07;5.17;;;3.40;99.90;;;;;;5050343;28;20694;-60
2022/11/21 08:11:31;;;;;;;11.57;4.00;;;3.40;99.90;;;;;;5049376;28;20202;-59
2022/11/21 08:13:58;;;;;;;7.20;3.60;;;3.50;99.90;;;;;;5051026;28;20596;-60
2022/11/21 08:16:26;;;;;;;7.20;4.63;;;3.50;99.90;;;;;;5029145;28;20463;-60
2022/11/21 08:18:52;;;;;;;9.80;4.40;;;3.50;99.90;;;;;;5029568;28;20461;-60
2022/11/21 08:21:18;;;;;;;4.90;3.57;;;3.60;99.90;;;;;;5048293;28;20421;-59
2022/11/21 08:23:44;;;;;;;6.77;3.80;;;3.60;99.90;;;;;;5048667;28;20780;-60
2022/11/21 08:26:09;;;;;;;10.80;3.73;;;3.70;99.90;;;;;;5052518;28;20175;-59
2022/11/21 08:28:35;;;;;;;5.37;2.80;;;3.70;99.90;;;;;;5031804;28;20210;-60
2022/11/21 08:31:05;;;;;;;8.60;2.87;;;3.70;99.90;;;;;;5046963;28;20571;-60
2022/11/21 08:33:31;;;;;;;6.97;2.87;;;3.70;99.90;;;;;;5043660;28;20426;-59
2022/11/21 08:35:57;;;;;;;4.40;2.80;;;3.70;99.90;;;;;;5044590;28;20834;-60
2022/11/21 08:38:23;;;;;;;6.33;2.43;;;3.70;99.90;;;;;;5046208;28;20466;-59
2022/11/21 08:42:01;;;;;;;4.50;2.70;;;3.70;99.90;;;;;;5048032;28;20949;-60
2022/11/21 08:43:37;;;;;;;4.37;2.37;;;3.80;99.90;;;;;;5050221;28;20186;-60
2022/11/21 08:46:03;;;;;;;7.40;2.77;;;3.90;99.90;;;;;;5048920;28;20429;-60
2022/11/21 08:48:28;;;;;;;10.13;2.60;;;3.90;99.90;;;;;;5041542;28;20202;-60
2022/11/21 08:50:56;;;;;;;4.13;3.03;;;4.00;99.90;;;;;;5050286;28;20722;-60
2022/11/21 08:53:22;;;;;;;5.90;2.77;;;4.00;99.90;;;;;;5035220;28;20611;-60
2022/11/21 08:55:48;;;;;;;2.50;1.73;;;4.00;99.90;;;;;;5035521;28;20437;-61
2022/11/21 08:58:13;;;;;;;3.83;1.97;;;4.10;99.90;;;;;;5048354;28;20471;-60
2022/11/21 09:00:39;;;;;;;3.83;2.20;;;4.10;99.90;;;;;;5047294;28;20202;-60
2022/11/21 09:03:05;;;;;;;4.50;1.90;;;4.10;99.90;;;;;;5049235;28;20205;-60
2022/11/21 09:05:31;;;;;;;3.77;2.00;;;4.20;99.90;;;;;;5052013;28;20203;-59
2022/11/21 09:07:57;;;;;;;3.73;1.83;;;4.20;99.90;;;;;;5044420;28;20504;-60
2022/11/21 09:10:30;;;;;;;6.30;2.37;;;4.20;99.90;;;;;;5043468;28;20433;-61
2022/11/21 09:12:59;;;;;;;7.57;2.37;;;4.30;99.90;;;;;;5043600;28;20464;-59
2022/11/21 09:18:12;;;;;;;4.87;2.10;;;4.40;99.90;;;;;;5044358;28;20476;-61
2022/11/21 09:20:42;;;;;;;5.07;2.60;;;4.40;99.90;;;;;;5048365;28;20473;-60
2022/11/21 09:23:10;;;;;;;4.40;2.50;;;4.50;99.90;;;;;;5046495;28;20429;-60
2022/11/21 09:25:36;;;;;;;5.03;1.90;;;4.50;99.90;;;;;;5041000;28;20438;-60
2022/11/21 09:28:03;;;;;;;3.83;2.10;;;4.60;99.90;;;;;;5048733;28;20464;-61
2022/11/21 09:30:29;;;;;;;8.07;2.23;;;4.70;99.90;;;;;;5046729;28;20206;-60
2022/11/21 09:33:05;;;;;;;2.83;1.90;;;4.80;99.90;;;;;;5043558;28;20437;-60
2022/11/21 09:35:31;;;;;;;8.57;2.97;;;4.90;99.90;;;;;;5029028;28;20178;-60
2022/11/21 09:37:57;;;;;;;6.47;2.13;;;4.90;99.90;;;;;;5050191;28;20457;-60
2022/11/21 09:40:24;;;;;;;2.30;1.77;;;4.90;99.90;;;;;;5047050;28;20201;-60
2022/11/21 09:43:01;;;;;;;12.23;2.13;;;4.90;99.90;;;;;;5042648;28;20460;-60
2022/11/21 09:45:52;;;;;;;5.40;2.30;;;4.90;99.90;;;;;;5046775;28;20539;-60
2022/11/21 09:48:32;;;;;;;4.13;2.87;;;4.90;99.90;;;;;;5044328;28;20972;-60
2022/11/21 09:51:12;;;;;;;4.07;2.07;;;5.10;99.90;;;;;;5043164;28;20793;-62
2022/11/21 09:53:51;;;;;;;3.20;2.00;;;5.30;99.90;;;;;;5027876;28;20520;-60
2022/11/21 09:56:22;;;;;;;7.53;2.97;;;5.40;99.90;;;;;;5049956;28;20428;-61
2022/11/21 09:59:05;;;;;;;11.60;2.10;;;5.40;99.90;;;;;;5048121;28;20575;-67
2022/11/21 10:01:31;;;;;;;3.47;2.17;;;5.50;99.90;;;;;;5048818;28;20504;-60
2022/11/21 10:04:00;;;;;;;7.37;3.27;;;5.50;99.90;;;;;;5041288;28;20429;-60
2022/11/21 10:06:30;;;;;;;8.47;3.60;;;5.50;99.90;;;;;;5048056;28;20190;-60
2022/11/21 10:09:14;;;;;;;4.57;2.40;;;5.50;99.90;;;;;;5042880;28;20441;-60
2022/11/21 10:15:01;;;;;;;1.70;1.60;;;5.70;99.90;;;;;;5045546;28;20991;-60
2022/11/21 10:18:00;;;;;;;3.80;2.50;;;5.90;99.90;;;;;;5046411;28;20418;-61
2022/11/21 10:20:35;;;;;;;4.70;1.60;;;6.00;99.90;;;;;;5047670;28;20472;-60
2022/11/21 10:23:32;;;;;;;5.10;2.20;;;6.10;99.90;;;;;;5051473;28;20425;-60
2022/11/21 10:26:16;;;;;;;5.53;2.10;;;6.10;99.90;;;;;;5045743;28;20425;-61
2022/11/21 10:28:48;;;;;;;3.50;1.77;;;6.00;99.90;;;;;;5047987;28;20446;-61
2022/11/21 10:31:15;;;;;;;5.30;2.17;;;6.10;99.90;;;;;;5039715;28;20949;-60
2022/11/21 10:33:40;;;;;;;8.57;2.87;;;6.20;99.90;;;;;;5044702;28;20442;-60
2022/11/21 10:36:12;;;;;;;8.73;2.73;;;6.40;99.90;;;;;;5032072;28;20491;-60
2022/11/21 10:38:40;;;;;;;5.17;2.40;;;6.50;99.90;;;;;;5044768;28;20214;-60
2022/11/21 10:41:35;;;;;;;6.17;2.37;;;6.60;99.90;;;;;;5043850;28;20534;-60
2022/11/21 10:47:26;;;;;;;6.57;2.43;;;6.60;99.90;;;;;;5044172;28;20923;-60
2022/11/21 10:50:08;;;;;;;8.97;2.10;;;6.60;99.90;;;;;;5045277;28;20494;-60
2022/11/21 10:52:38;;;;;;;4.70;2.03;;;6.60;99.90;;;;;;5043488;28;20438;-60
2022/11/21 10:55:07;;;;;;;6.77;2.10;;;6.50;99.90;;;;;;5029007;28;20432;-60
2022/11/21 10:57:43;;;;;;;5.47;1.70;;;6.50;99.90;;;;;;5050074;28;20876;-60
2022/11/21 11:00:11;;;;;;;10.60;2.27;;;6.50;99.90;;;;;;5036011;28;20465;-60
2022/11/21 11:02:38;;;;;;;6.93;2.43;;;6.40;99.90;;;;;;5046700;28;20460;-60
2022/11/21 11:05:24;;;;;;;12.50;2.77;;;6.40;99.90;;;;;;5015868;28;20921;-60
2022/11/21 11:08:04;;;;;;;18.60;2.53;;;6.30;99.90;;;;;;5048893;28;20488;-60
2022/11/21 11:10:31;;;;;;;5.73;2.40;;;6.40;99.90;;;;;;5045635;28;20436;-60
2022/11/21 11:16:09;;;;;;;7.10;1.80;;;6.60;99.90;;;;;;5051194;28;20429;-60
2022/11/21 11:18:50;;;;;;;7.30;2.00;;;6.60;99.90;;;;;;5051696;28;20535;-60
2022/11/21 11:21:25;;;;;;;9.90;2.00;;;6.50;99.90;;;;;;5049233;28;20449;-60
2022/11/21 11:23:52;;;;;;;8.37;2.30;;;6.50;99.90;;;;;;5057201;28;20494;-59
2022/11/21 11:26:26;;;;;;;8.73;2.70;;;6.40;99.90;;;;;;5051105;28;20467;-60
2022/11/21 11:28:54;;;;;;;6.80;1.87;;;6.40;99.90;;;;;;5048961;28;20536;-60
2022/11/21 11:31:20;;;;;;;10.83;1.97;;;6.40;99.90;;;;;;5045551;28;20959;-60
2022/11/21 11:33:48;;;;;;;6.20;1.93;;;6.40;99.90;;;;;;5050755;28;20433;-60
2022/11/21 11:36:20;;;;;;;8.90;1.97;;;6.40;99.90;;;;;;5033357;28;20202;-60
2022/11/21 11:38:57;;;;;;;4.17;2.10;;;6.40;99.90;;;;;;5051817;28;20454;-59
2022/11/21 11:47:47;;;;;;;6.67;2.50;;;6.60;99.90;;;;;;5050688;28;20432;-60
2022/11/21 11:50:21;;;;;;;6.53;2.20;;;6.70;99.90;;;;;;5037668;28;20432;-60
2022/11/21 11:52:53;;;;;;;5.43;2.00;;;6.80;99.90;;;;;;5035210;28;20449;-59
2022/11/21 11:55:30;;;;;;;10.10;2.20;;;6.90;99.90;;;;;;5030613;28;20529;-60
2022/11/21 11:58:01;;;;;;;4.00;1.67;;;6.90;99.90;;;;;;5039007;28;21178;-60
2022/11/21 12:01:00;;;;;;;6.10;2.30;;;6.90;99.90;;;;;;5025717;28;20465;-60
2022/11/21 12:03:50;;;;;;;8.17;2.10;;;6.90;99.90;;;;;;5012244;28;20434;-58
2022/11/21 12:06:18;;;;;;;8.67;1.97;;;6.90;99.90;;;;;;5023870;28;20438;-59
2022/11/21 12:09:03;;;;;;;10.83;2.13;;;6.90;99.90;;;;;;5036596;28;20448;-60
2022/11/21 12:17:23;;;;;;;5.43;1.70;;;6.70;99.90;;;;;;5042855;28;21024;-59
2022/11/21 12:19:52;;;;;;;3.50;1.80;;;6.80;99.90;;;;;;5031571;28;20836;-59
2022/11/21 12:22:17;;;;;;;6.50;2.50;;;6.80;99.90;;;;;;5047970;28;20429;-60
2022/11/21 12:24:43;;;;;;;7.63;1.97;;;6.80;99.90;;;;;;5046757;28;20445;-60
2022/11/21 12:27:39;;;;;;;9.33;2.90;;;6.90;99.90;;;;;;5039267;28;20179;-59
2022/11/21 12:30:26;;;;;;;10.17;3.37;;;6.90;99.90;;;;;;5030868;28;20650;-58
2022/11/21 12:32:57;;;;;;;9.03;2.73;;;7.00;99.90;;;;;;5042500;28;20441;-59
2022/11/21 12:35:34;;;;;;;9.50;4.10;;;7.00;99.90;;;;;;5042803;28;20446;-59
2022/11/21 12:38:08;;;;;;;10.47;3.70;;;7.10;99.90;;;;;;5048674;28;20460;-59
2022/11/21 12:40:36;;;;;;;5.00;2.47;;;7.10;99.90;;;;;;5042299;28;20527;-59
2022/11/21 12:43:05;;;;;;;4.60;2.37;;;7.20;99.90;;;;;;5045547;28;20445;-61
2022/11/21 12:45:31;;;;;;;10.97;2.70;;;7.20;99.90;;;;;;5045945;28;20436;-60
2022/11/21 12:54:45;;;;;;;7.50;2.17;;;7.10;99.90;;;;;;5034563;28;20444;-60
2022/11/21 12:57:15;;;;;;;8.20;2.67;;;7.20;99.90;;;;;;5027264;28;20441;-60
2022/11/21 13:00:02;;;;;;;6.33;1.93;;;7.20;99.90;;;;;;5045949;28;21007;-60
2022/11/21 13:03:00;;;;;;;8.90;3.00;;;7.20;99.90;;;;;;5041848;28;20461;-59
2022/11/21 13:05:39;;;;;;;6.20;3.20;;;7.20;99.90;;;;;;5014944;28;20455;-58
2022/11/21 13:08:13;;;;;;;7.80;4.20;;;7.30;99.90;;;;;;5040543;28;20537;-58
2022/11/21 13:10:48;;;;;;;15.40;4.00;;;7.30;99.90;;;;;;5043838;28;21148;-59
2022/11/21 13:13:33;;;;;;;8.90;2.93;;;7.40;99.90;;;;;;5027014;28;20430;-58
2022/11/21 13:16:08;;;;;;;18.00;4.40;;;7.40;99.90;;;;;;5036849;28;20445;-58
2022/11/21 13:18:48;;;;;;;16.83;5.67;;;7.40;99.90;;;;;;5042316;28;20507;-59
2022/11/21 13:21:43;;;;;;;9.27;3.20;;;7.50;99.90;;;;;;5042302;28;20457;-59
2022/11/21 13:24:10;;;;;;;9.13;2.50;;;7.50;99.90;;;;;;5042360;28;20471;-58
2022/11/21 13:26:44;;;;;;;9.30;2.87;;;7.60;99.90;;;;;;5047669;28;20440;-59
2022/11/21 13:29:13;;;;;;;10.57;2.87;;;7.60;99.90;;;;;;5027606;28;20445;-59
2022/11/21 13:31:40;;;;;;;5.63;2.30;;;7.70;99.90;;;;;;5044609;28;21018;-59
2022/11/21 13:34:31;;;;;;;9.77;4.60;;;7.80;99.90;;;;;;5041600;28;20500;-59
2022/11/21 13:36:57;;;;;;;5.70;2.97;;;8.10;99.90;;;;;;5040251;28;20435;-59
2022/11/21 13:39:33;;;;;;;7.80;3.23;;;8.30;99.90;;;;;;5046572;28;20479;-60
2022/11/21 13:44:53;;;;;;;6.90;3.30;;;8.30;99.80;;;;;;5046708;28;20440;-61
2022/11/21 13:47:24;;;;;;;6.47;4.20;;;8.20;99.90;;;;;;5048902;28;20418;-60